sensor_id;sensor_type;location;lat;lon;timestamp;temperature;humidity
41928;DHT22;27616;51.420;6.788;2023-08-07T00:00:11;13.00;99.90
41928;DHT22;27616;51.420;6.788;2023-08-07T00:02:37;13.00;99.90
41928;DHT22;27616;51.420;6.788;2023-08-07T00:05:03;13.00;99.90
41928;DHT22;27616;51.420;6.788;2023-08-07T00:07:28;13.00;99.90
41928;DHT22;27616;51.420;6.788;2023-08-07T00:09:54;13.00;99.90
41928;DHT22;27616;51.420;6.788;2023-08-07T00:12:19;13.00;99.90
41928;DHT22;27616;51.420;6.788;2023-08-07T00:14:47;13.00;99.90
41928;DHT22;27616;51.420;6.788;2023-08-07T00:17:13;13.00;99.90
41928;DHT22;27616;51.420;6.788;2023-08-07T00:19:38;13.00;99.90
41928;DHT22;27616;51.420;6.788;2023-08-07T00:22:04;13.00;99.90
41928;DHT22;27616;51.420;6.788;2023-08-07T00:24:30;13.00;99.90
41928;DHT22;27616;51.420;6.788;2023-08-07T00:26:56;13.00;99.90
41928;DHT22;27616;51.420;6.788;2023-08-07T00:29:22;13.00;99.90
41928;DHT22;27616;51.420;6.788;2023-08-07T00:31:47;13.00;99.90
41928;DHT22;27616;51.420;6.788;2023-08-07T00:34:13;13.10;99.90
41928;DHT22;27616;51.420;6.788;2023-08-07T00:36:39;13.10;99.90
41928;DHT22;27616;51.420;6.788;2023-08-07T00:39:05;13.10;99.90
41928;DHT22;27616;51.420;6.788;2023-08-07T00:41:31;13.00;99.90
41928;DHT22;27616;51.420;6.788;2023-08-07T00:43:56;13.00;99.90
41928;DHT22;27616;51.420;6.788;2023-08-07T00:46:22;13.00;99.90
41928;DHT22;27616;51.420;6.788;2023-08-07T00:48:48;13.10;99.90
41928;DHT22;27616;51.420;6.788;2023-08-07T00:51:14;13.10;99.90
41928;DHT22;27616;51.420;6.788;2023-08-07T00:53:40;13.10;99.90
41928;DHT22;27616;51.420;6.788;2023-08-07T00:56:07;13.10;99.90
41928;DHT22;27616;51.420;6.788;2023-08-07T00:58:34;13.10;99.90
41928;DHT22;27616;51.420;6.788;2023-08-07T01:00:59;13.10;99.90
41928;DHT22;27616;51.420;6.788;2023-08-07T01:03:25;13.10;99.90
41928;DHT22;27616;51.420;6.788;2023-08-07T01:05:51;13.20;99.90
41928;DHT22;27616;51.420;6.788;2023-08-07T01:08:18;13.20;99.90
41928;DHT22;27616;51.420;6.788;2023-08-07T01:16:21;13.10;99.90
41928;DHT22;27616;51.420;6.788;2023-08-07T01:18:50;13.00;99.90
41928;DHT22;27616;51.420;6.788;2023-08-07T01:21:19;13.00;99.90
41928;DHT22;27616;51.420;6.788;2023-08-07T01:23:46;13.00;99.90
41928;DHT22;27616;51.420;6.788;2023-08-07T01:26:12;13.00;99.90
41928;DHT22;27616;51.420;6.788;2023-08-07T01:28:42;13.00;99.90
41928;DHT22;27616;51.420;6.788;2023-08-07T01:31:14;13.00;99.90
41928;DHT22;27616;51.420;6.788;2023-08-07T01:34:05;13.00;99.90
41928;DHT22;27616;51.420;6.788;2023-08-07T01:36:33;13.00;99.90
41928;DHT22;27616;51.420;6.788;2023-08-07T01:39:00;13.10;99.90
41928;DHT22;27616;51.420;6.788;2023-08-07T01:41:27;13.10;99.90
41928;DHT22;27616;51.420;6.788;2023-08-07T01:43:54;13.10;99.90
41928;DHT22;27616;51.420;6.788;2023-08-07T01:46:21;13.10;99.90
41928;DHT22;27616;51.420;6.788;2023-08-07T01:48:46;13.10;99.90
41928;DHT22;27616;51.420;6.788;2023-08-07T01:51:12;13.10;99.90
41928;DHT22;27616;51.420;6.788;2023-08-07T01:53:38;13.00;99.90
41928;DHT22;27616;51.420;6.788;2023-08-07T01:56:04;13.10;99.90
41928;DHT22;27616;51.420;6.788;2023-08-07T01:58:30;13.10;99.90
41928;DHT22;27616;51.420;6.788;2023-08-07T02:00:56;13.10;99.90
41928;DHT22;27616;51.420;6.788;2023-08-07T02:03:22;13.00;99.90
41928;DHT22;27616;51.420;6.788;2023-08-07T02:05:47;13.00;99.90
41928;DHT22;27616;51.420;6.788;2023-08-07T02:08:14;13.00;99.90
41928;DHT22;27616;51.420;6.788;2023-08-07T02:10:40;12.90;99.90
41928;DHT22;27616;51.420;6.788;2023-08-07T02:13:05;12.90;99.90
41928;DHT22;27616;51.420;6.788;2023-08-07T02:15:32;12.80;99.90
41928;DHT22;27616;51.420;6.788;2023-08-07T02:17:58;12.80;99.90
41928;DHT22;27616;51.420;6.788;2023-08-07T02:20:24;12.80;99.90
41928;DHT22;27616;51.420;6.788;2023-08-07T02:22:49;12.70;99.90
41928;DHT22;27616;51.420;6.788;2023-08-07T02:25:15;12.70;99.90
41928;DHT22;27616;51.420;6.788;2023-08-07T02:27:41;12.60;99.90
41928;DHT22;27616;51.420;6.788;2023-08-07T02:30:07;12.60;99.90
41928;DHT22;27616;51.420;6.788;2023-08-07T02:32:32;12.60;99.90
41928;DHT22;27616;51.420;6.788;2023-08-07T02:34:58;12.60;99.90
41928;DHT22;27616;51.420;6.788;2023-08-07T02:37:24;12.60;99.90
41928;DHT22;27616;51.420;6.788;2023-08-07T02:39:49;12.60;99.90
41928;DHT22;27616;51.420;6.788;2023-08-07T02:42:15;12.60;99.90
41928;DHT22;27616;51.420;6.788;2023-08-07T02:44:41;12.60;99.90
41928;DHT22;27616;51.420;6.788;2023-08-07T02:47:06;12.60;99.90
41928;DHT22;27616;51.420;6.788;2023-08-07T02:49:32;12.60;99.90
41928;DHT22;27616;51.420;6.788;2023-08-07T02:51:58;12.60;99.90
41928;DHT22;27616;51.420;6.788;2023-08-07T02:54:23;12.60;99.90
41928;DHT22;27616;51.420;6.788;2023-08-07T02:56:49;12.60;99.90
41928;DHT22;27616;51.420;6.788;2023-08-07T02:59:15;12.60;99.90
41928;DHT22;27616;51.420;6.788;2023-08-07T03:01:41;12.60;99.90
41928;DHT22;27616;51.420;6.788;2023-08-07T03:04:07;12.60;99.90
41928;DHT22;27616;51.420;6.788;2023-08-07T03:06:33;12.60;99.90
41928;DHT22;27616;51.420;6.788;2023-08-07T03:08:59;12.50;99.90
41928;DHT22;27616;51.420;6.788;2023-08-07T03:11:24;12.60;99.90
41928;DHT22;27616;51.420;6.788;2023-08-07T03:13:50;12.60;99.90
41928;DHT22;27616;51.420;6.788;2023-08-07T03:16:15;12.60;99.90
41928;DHT22;27616;51.420;6.788;2023-08-07T03:18:41;12.60;99.90
41928;DHT22;27616;51.420;6.788;2023-08-07T03:21:07;12.50;99.90
41928;DHT22;27616;51.420;6.788;2023-08-07T03:23:32;12.50;99.90
41928;DHT22;27616;51.420;6.788;2023-08-07T03:26:06;12.60;99.90
41928;DHT22;27616;51.420;6.788;2023-08-07T03:28:33;12.60;99.90
41928;DHT22;27616;51.420;6.788;2023-08-07T03:30:59;12.60;99.90
41928;DHT22;27616;51.420;6.788;2023-08-07T03:33:26;12.60;99.90
41928;DHT22;27616;51.420;6.788;2023-08-07T03:35:52;12.60;99.90
41928;DHT22;27616;51.420;6.788;2023-08-07T03:38:19;12.60;99.90
41928;DHT22;27616;51.420;6.788;2023-08-07T03:40:46;12.60;99.90
41928;DHT22;27616;51.420;6.788;2023-08-07T03:43:12;12.60;99.90
41928;DHT22;27616;51.420;6.788;2023-08-07T03:45:39;12.60;99.90
41928;DHT22;27616;51.420;6.788;2023-08-07T03:48:05;12.70;99.90
41928;DHT22;27616;51.420;6.788;2023-08-07T03:50:30;12.70;99.90
41928;DHT22;27616;51.420;6.788;2023-08-07T03:52:59;12.70;99.90
41928;DHT22;27616;51.420;6.788;2023-08-07T03:55:26;12.70;99.90
41928;DHT22;27616;51.420;6.788;2023-08-07T03:57:53;12.70;99.90
41928;DHT22;27616;51.420;6.788;2023-08-07T04:00:18;12.70;99.90
41928;DHT22;27616;51.420;6.788;2023-08-07T04:02:47;12.80;99.90
41928;DHT22;27616;51.420;6.788;2023-08-07T04:05:13;12.80;99.90
41928;DHT22;27616;51.420;6.788;2023-08-07T04:07:39;12.70;99.90
41928;DHT22;27616;51.420;6.788;2023-08-07T04:10:05;12.80;99.90
41928;DHT22;27616;51.420;6.788;2023-08-07T04:12:30;12.70;99.90
41928;DHT22;27616;51.420;6.788;2023-08-07T04:14:56;12.70;99.90
41928;DHT22;27616;51.420;6.788;2023-08-07T04:17:22;12.70;99.90
41928;DHT22;27616;51.420;6.788;2023-08-07T04:19:47;12.60;99.90
41928;DHT22;27616;51.420;6.788;2023-08-07T04:22:13;12.70;99.90
41928;DHT22;27616;51.420;6.788;2023-08-07T04:24:39;12.70;99.90
41928;DHT22;27616;51.420;6.788;2023-08-07T04:27:05;12.70;99.90
41928;DHT22;27616;51.420;6.788;2023-08-07T04:29:31;12.70;99.90
41928;DHT22;27616;51.420;6.788;2023-08-07T04:31:56;12.70;99.90
41928;DHT22;27616;51.420;6.788;2023-08-07T04:34:22;12.70;99.90
41928;DHT22;27616;51.420;6.788;2023-08-07T04:36:47;12.70;99.90
41928;DHT22;27616;51.420;6.788;2023-08-07T04:39:15;12.80;99.90
41928;DHT22;27616;51.420;6.788;2023-08-07T04:41:41;12.80;99.90
41928;DHT22;27616;51.420;6.788;2023-08-07T04:44:06;12.90;99.90
41928;DHT22;27616;51.420;6.788;2023-08-07T04:46:32;12.90;99.90
41928;DHT22;27616;51.420;6.788;2023-08-07T04:48:59;12.90;99.90
41928;DHT22;27616;51.420;6.788;2023-08-07T04:51:26;12.90;99.90
41928;DHT22;27616;51.420;6.788;2023-08-07T04:53:52;13.00;99.90
41928;DHT22;27616;51.420;6.788;2023-08-07T04:56:17;13.00;99.90
41928;DHT22;27616;51.420;6.788;2023-08-07T04:58:43;13.00;99.90
41928;DHT22;27616;51.420;6.788;2023-08-07T05:01:08;13.00;99.90
41928;DHT22;27616;51.420;6.788;2023-08-07T05:03:34;13.00;99.90
41928;DHT22;27616;51.420;6.788;2023-08-07T05:06:01;13.10;99.90
41928;DHT22;27616;51.420;6.788;2023-08-07T05:08:27;13.00;99.90
41928;DHT22;27616;51.420;6.788;2023-08-07T05:10:52;13.00;99.90
41928;DHT22;27616;51.420;6.788;2023-08-07T05:13:18;13.00;99.90
41928;DHT22;27616;51.420;6.788;2023-08-07T05:15:43;13.00;99.90
41928;DHT22;27616;51.420;6.788;2023-08-07T05:18:12;13.00;99.90
41928;DHT22;27616;51.420;6.788;2023-08-07T05:20:37;13.00;99.90
41928;DHT22;27616;51.420;6.788;2023-08-07T05:23:03;13.00;99.90
41928;DHT22;27616;51.420;6.788;2023-08-07T05:25:28;12.90;99.90
41928;DHT22;27616;51.420;6.788;2023-08-07T05:27:54;13.00;99.90
41928;DHT22;27616;51.420;6.788;2023-08-07T05:30:20;12.90;99.90
41928;DHT22;27616;51.420;6.788;2023-08-07T05:32:45;13.00;99.90
41928;DHT22;27616;51.420;6.788;2023-08-07T05:35:11;12.90;99.90
41928;DHT22;27616;51.420;6.788;2023-08-07T05:37:36;12.90;99.90
41928;DHT22;27616;51.420;6.788;2023-08-07T05:40:03;12.80;99.90
41928;DHT22;27616;51.420;6.788;2023-08-07T05:42:29;12.80;99.90
41928;DHT22;27616;51.420;6.788;2023-08-07T05:44:55;12.80;99.90
41928;DHT22;27616;51.420;6.788;2023-08-07T05:47:20;12.80;99.90
41928;DHT22;27616;51.420;6.788;2023-08-07T05:49:46;12.80;99.90
41928;DHT22;27616;51.420;6.788;2023-08-07T05:52:11;12.70;99.90
41928;DHT22;27616;51.420;6.788;2023-08-07T05:54:37;12.70;99.90
41928;DHT22;27616;51.420;6.788;2023-08-07T05:57:03;12.80;99.90
41928;DHT22;27616;51.420;6.788;2023-08-07T05:59:29;12.70;99.90
41928;DHT22;27616;51.420;6.788;2023-08-07T06:01:55;12.70;99.90
41928;DHT22;27616;51.420;6.788;2023-08-07T06:04:21;12.70;99.90
41928;DHT22;27616;51.420;6.788;2023-08-07T06:06:47;12.60;99.90
41928;DHT22;27616;51.420;6.788;2023-08-07T06:09:13;12.60;99.90
41928;DHT22;27616;51.420;6.788;2023-08-07T06:11:42;12.60;99.90
41928;DHT22;27616;51.420;6.788;2023-08-07T06:14:08;12.70;99.90
41928;DHT22;27616;51.420;6.788;2023-08-07T06:16:33;12.70;99.90
41928;DHT22;27616;51.420;6.788;2023-08-07T06:18:59;12.70;99.90
41928;DHT22;27616;51.420;6.788;2023-08-07T06:21:25;12.70;99.90
41928;DHT22;27616;51.420;6.788;2023-08-07T06:23:51;12.70;99.90
41928;DHT22;27616;51.420;6.788;2023-08-07T06:26:17;12.70;99.90
41928;DHT22;27616;51.420;6.788;2023-08-07T06:28:43;12.80;99.90
41928;DHT22;27616;51.420;6.788;2023-08-07T06:31:10;12.80;99.90
41928;DHT22;27616;51.420;6.788;2023-08-07T06:33:36;12.80;99.90
41928;DHT22;27616;51.420;6.788;2023-08-07T06:36:06;12.90;99.90
41928;DHT22;27616;51.420;6.788;2023-08-07T06:38:31;12.90;99.90
41928;DHT22;27616;51.420;6.788;2023-08-07T06:40:57;12.90;99.90
41928;DHT22;27616;51.420;6.788;2023-08-07T06:43:23;12.90;99.90
41928;DHT22;27616;51.420;6.788;2023-08-07T06:45:53;12.90;99.90
41928;DHT22;27616;51.420;6.788;2023-08-07T06:48:19;12.90;99.90
41928;DHT22;27616;51.420;6.788;2023-08-07T06:50:46;12.90;99.90
41928;DHT22;27616;51.420;6.788;2023-08-07T06:53:12;13.00;99.90
41928;DHT22;27616;51.420;6.788;2023-08-07T06:55:37;13.00;99.90
41928;DHT22;27616;51.420;6.788;2023-08-07T06:58:03;13.00;99.90
41928;DHT22;27616;51.420;6.788;2023-08-07T07:00:28;13.00;99.90
41928;DHT22;27616;51.420;6.788;2023-08-07T07:02:54;13.00;99.90
41928;DHT22;27616;51.420;6.788;2023-08-07T07:05:20;13.00;99.90
41928;DHT22;27616;51.420;6.788;2023-08-07T07:07:45;13.00;99.90
41928;DHT22;27616;51.420;6.788;2023-08-07T07:10:12;13.00;99.90
41928;DHT22;27616;51.420;6.788;2023-08-07T07:12:38;13.00;99.90
41928;DHT22;27616;51.420;6.788;2023-08-07T07:15:04;13.00;99.90
41928;DHT22;27616;51.420;6.788;2023-08-07T07:17:29;13.00;99.90
41928;DHT22;27616;51.420;6.788;2023-08-07T07:19:55;13.00;99.90
41928;DHT22;27616;51.420;6.788;2023-08-07T07:22:22;13.10;99.90
41928;DHT22;27616;51.420;6.788;2023-08-07T07:24:48;13.10;99.90
41928;DHT22;27616;51.420;6.788;2023-08-07T07:27:13;13.10;99.90
41928;DHT22;27616;51.420;6.788;2023-08-07T07:29:39;13.00;99.90
41928;DHT22;27616;51.420;6.788;2023-08-07T07:32:05;13.00;99.90
41928;DHT22;27616;51.420;6.788;2023-08-07T07:34:31;13.00;99.90
41928;DHT22;27616;51.420;6.788;2023-08-07T07:36:56;13.00;99.90
41928;DHT22;27616;51.420;6.788;2023-08-07T07:39:22;13.00;99.90
41928;DHT22;27616;51.420;6.788;2023-08-07T07:41:47;13.00;99.90
41928;DHT22;27616;51.420;6.788;2023-08-07T07:44:13;13.00;99.90
41928;DHT22;27616;51.420;6.788;2023-08-07T07:46:39;13.00;99.90
41928;DHT22;27616;51.420;6.788;2023-08-07T07:49:04;13.00;99.90
41928;DHT22;27616;51.420;6.788;2023-08-07T07:51:31;13.00;99.90
41928;DHT22;27616;51.420;6.788;2023-08-07T07:54:00;13.00;99.90
41928;DHT22;27616;51.420;6.788;2023-08-07T07:56:26;13.10;99.90
41928;DHT22;27616;51.420;6.788;2023-08-07T07:58:51;13.20;99.90
41928;DHT22;27616;51.420;6.788;2023-08-07T08:01:17;13.20;99.90
41928;DHT22;27616;51.420;6.788;2023-08-07T08:03:43;13.30;99.90
41928;DHT22;27616;51.420;6.788;2023-08-07T08:06:11;13.30;99.90
41928;DHT22;27616;51.420;6.788;2023-08-07T08:08:37;13.40;99.90
41928;DHT22;27616;51.420;6.788;2023-08-07T08:11:03;13.40;99.90
41928;DHT22;27616;51.420;6.788;2023-08-07T08:13:28;13.40;99.90
41928;DHT22;27616;51.420;6.788;2023-08-07T08:15:54;13.50;99.90
41928;DHT22;27616;51.420;6.788;2023-08-07T08:18:20;13.50;99.90
41928;DHT22;27616;51.420;6.788;2023-08-07T08:20:45;13.50;99.90
41928;DHT22;27616;51.420;6.788;2023-08-07T08:23:11;13.60;99.90
41928;DHT22;27616;51.420;6.788;2023-08-07T08:25:36;13.60;99.90
41928;DHT22;27616;51.420;6.788;2023-08-07T08:28:02;13.60;99.90
41928;DHT22;27616;51.420;6.788;2023-08-07T08:30:29;13.70;99.90
41928;DHT22;27616;51.420;6.788;2023-08-07T08:32:54;13.70;99.90
41928;DHT22;27616;51.420;6.788;2023-08-07T08:35:20;13.80;99.90
41928;DHT22;27616;51.420;6.788;2023-08-07T08:37:46;13.80;99.90
41928;DHT22;27616;51.420;6.788;2023-08-07T08:40:11;13.90;99.90
41928;DHT22;27616;51.420;6.788;2023-08-07T08:42:39;13.90;99.90
41928;DHT22;27616;51.420;6.788;2023-08-07T08:45:09;14.00;99.90
41928;DHT22;27616;51.420;6.788;2023-08-07T08:47:37;14.00;99.90
41928;DHT22;27616;51.420;6.788;2023-08-07T08:50:13;14.10;99.90
41928;DHT22;27616;51.420;6.788;2023-08-07T08:52:44;14.30;99.90
41928;DHT22;27616;51.420;6.788;2023-08-07T08:55:11;14.40;99.90
41928;DHT22;27616;51.420;6.788;2023-08-07T08:57:38;14.50;99.90
41928;DHT22;27616;51.420;6.788;2023-08-07T09:00:05;14.70;99.90
41928;DHT22;27616;51.420;6.788;2023-08-07T09:02:41;14.90;99.90
41928;DHT22;27616;51.420;6.788;2023-08-07T09:05:07;14.90;99.90
41928;DHT22;27616;51.420;6.788;2023-08-07T09:07:33;15.00;99.90
41928;DHT22;27616;51.420;6.788;2023-08-07T09:10:02;15.20;99.90
41928;DHT22;27616;51.420;6.788;2023-08-07T09:12:32;15.30;99.90
41928;DHT22;27616;51.420;6.788;2023-08-07T09:14:59;15.30;99.90
41928;DHT22;27616;51.420;6.788;2023-08-07T09:17:28;15.30;99.90
41928;DHT22;27616;51.420;6.788;2023-08-07T09:19:55;15.20;99.90
41928;DHT22;27616;51.420;6.788;2023-08-07T09:22:21;15.10;99.90
41928;DHT22;27616;51.420;6.788;2023-08-07T09:24:47;15.00;99.90
41928;DHT22;27616;51.420;6.788;2023-08-07T09:27:13;14.90;99.90
41928;DHT22;27616;51.420;6.788;2023-08-07T09:29:44;14.90;99.90
41928;DHT22;27616;51.420;6.788;2023-08-07T09:32:14;14.80;99.90
41928;DHT22;27616;51.420;6.788;2023-08-07T09:34:41;14.70;99.90
41928;DHT22;27616;51.420;6.788;2023-08-07T09:37:11;14.60;99.90
41928;DHT22;27616;51.420;6.788;2023-08-07T09:39:36;14.40;99.90
41928;DHT22;27616;51.420;6.788;2023-08-07T09:42:03;14.40;99.90
41928;DHT22;27616;51.420;6.788;2023-08-07T09:44:36;14.40;99.90
41928;DHT22;27616;51.420;6.788;2023-08-07T09:47:14;14.60;99.90
41928;DHT22;27616;51.420;6.788;2023-08-07T09:49:40;14.70;99.90
41928;DHT22;27616;51.420;6.788;2023-08-07T09:52:08;14.80;99.90
41928;DHT22;27616;51.420;6.788;2023-08-07T09:54:34;14.90;99.90
41928;DHT22;27616;51.420;6.788;2023-08-07T09:57:01;15.00;99.90
41928;DHT22;27616;51.420;6.788;2023-08-07T09:59:28;15.10;99.90
41928;DHT22;27616;51.420;6.788;2023-08-07T10:01:55;15.20;99.90
41928;DHT22;27616;51.420;6.788;2023-08-07T10:04:21;15.40;99.90
41928;DHT22;27616;51.420;6.788;2023-08-07T10:06:47;15.60;99.90
41928;DHT22;27616;51.420;6.788;2023-08-07T10:09:13;15.60;99.90
41928;DHT22;27616;51.420;6.788;2023-08-07T10:11:40;15.70;99.90
41928;DHT22;27616;51.420;6.788;2023-08-07T10:14:06;15.80;99.90
41928;DHT22;27616;51.420;6.788;2023-08-07T10:16:32;15.90;99.90
41928;DHT22;27616;51.420;6.788;2023-08-07T10:18:58;16.10;99.90
41928;DHT22;27616;51.420;6.788;2023-08-07T10:21:24;16.30;99.90
41928;DHT22;27616;51.420;6.788;2023-08-07T10:23:54;16.50;99.90
41928;DHT22;27616;51.420;6.788;2023-08-07T10:26:22;16.50;99.90
41928;DHT22;27616;51.420;6.788;2023-08-07T10:28:50;16.60;99.90
41928;DHT22;27616;51.420;6.788;2023-08-07T10:31:18;16.70;99.90
41928;DHT22;27616;51.420;6.788;2023-08-07T10:33:44;16.80;99.90
41928;DHT22;27616;51.420;6.788;2023-08-07T10:36:10;16.70;99.90
41928;DHT22;27616;51.420;6.788;2023-08-07T10:38:36;16.70;99.90
41928;DHT22;27616;51.420;6.788;2023-08-07T10:43:28;16.50;99.90
41928;DHT22;27616;51.420;6.788;2023-08-07T10:46:02;16.50;99.90
41928;DHT22;27616;51.420;6.788;2023-08-07T10:48:28;16.50;99.90
41928;DHT22;27616;51.420;6.788;2023-08-07T10:53:43;15.90;99.90
41928;DHT22;27616;51.420;6.788;2023-08-07T10:56:33;15.60;99.90
41928;DHT22;27616;51.420;6.788;2023-08-07T10:59:08;15.30;99.90
41928;DHT22;27616;51.420;6.788;2023-08-07T11:04:11;15.10;99.90
41928;DHT22;27616;51.420;6.788;2023-08-07T11:06:38;15.20;99.90
41928;DHT22;27616;51.420;6.788;2023-08-07T11:09:06;15.50;99.90
41928;DHT22;27616;51.420;6.788;2023-08-07T11:14:08;15.90;99.90
41928;DHT22;27616;51.420;6.788;2023-08-07T11:16:34;16.10;99.90
41928;DHT22;27616;51.420;6.788;2023-08-07T11:19:00;16.20;99.90
41928;DHT22;27616;51.420;6.788;2023-08-07T11:21:26;16.30;99.90
41928;DHT22;27616;51.420;6.788;2023-08-07T11:23:51;16.40;99.90
41928;DHT22;27616;51.420;6.788;2023-08-07T11:26:17;16.60;99.90
41928;DHT22;27616;51.420;6.788;2023-08-07T11:28:47;16.60;99.90
41928;DHT22;27616;51.420;6.788;2023-08-07T11:31:13;16.70;99.90
41928;DHT22;27616;51.420;6.788;2023-08-07T11:33:40;16.60;99.90
41928;DHT22;27616;51.420;6.788;2023-08-07T11:36:13;16.50;99.90
41928;DHT22;27616;51.420;6.788;2023-08-07T11:38:40;16.50;99.90
41928;DHT22;27616;51.420;6.788;2023-08-07T11:41:11;16.50;99.90
41928;DHT22;27616;51.420;6.788;2023-08-07T11:43:37;16.50;99.90
41928;DHT22;27616;51.420;6.788;2023-08-07T11:46:08;16.50;99.90
41928;DHT22;27616;51.420;6.788;2023-08-07T11:48:35;16.70;99.90
41928;DHT22;27616;51.420;6.788;2023-08-07T11:51:02;16.90;99.90
41928;DHT22;27616;51.420;6.788;2023-08-07T11:53:30;17.00;99.90
41928;DHT22;27616;51.420;6.788;2023-08-07T11:55:58;17.10;99.90
41928;DHT22;27616;51.420;6.788;2023-08-07T11:58:26;17.10;99.90
41928;DHT22;27616;51.420;6.788;2023-08-07T12:00:52;17.00;99.90
41928;DHT22;27616;51.420;6.788;2023-08-07T12:03:28;16.80;99.90
41928;DHT22;27616;51.420;6.788;2023-08-07T12:05:56;16.80;99.90
41928;DHT22;27616;51.420;6.788;2023-08-07T12:08:22;16.80;99.90
41928;DHT22;27616;51.420;6.788;2023-08-07T12:10:53;17.00;99.90
41928;DHT22;27616;51.420;6.788;2023-08-07T12:13:25;17.10;99.90
41928;DHT22;27616;51.420;6.788;2023-08-07T12:15:55;17.20;99.90
41928;DHT22;27616;51.420;6.788;2023-08-07T12:18:22;17.50;99.90
41928;DHT22;27616;51.420;6.788;2023-08-07T12:20:52;17.50;99.90
41928;DHT22;27616;51.420;6.788;2023-08-07T12:23:20;17.70;99.90
41928;DHT22;27616;51.420;6.788;2023-08-07T12:25:46;17.80;99.90
41928;DHT22;27616;51.420;6.788;2023-08-07T12:28:12;17.80;99.90
41928;DHT22;27616;51.420;6.788;2023-08-07T12:30:38;18.00;99.90
41928;DHT22;27616;51.420;6.788;2023-08-07T12:33:04;18.10;99.90
41928;DHT22;27616;51.420;6.788;2023-08-07T12:35:31;18.20;99.90
41928;DHT22;27616;51.420;6.788;2023-08-07T12:37:57;18.20;99.90
41928;DHT22;27616;51.420;6.788;2023-08-07T12:40:23;18.30;99.90
41928;DHT22;27616;51.420;6.788;2023-08-07T12:42:49;18.30;99.90
41928;DHT22;27616;51.420;6.788;2023-08-07T12:45:15;18.40;99.90
41928;DHT22;27616;51.420;6.788;2023-08-07T12:47:42;18.40;99.90
41928;DHT22;27616;51.420;6.788;2023-08-07T12:50:08;18.40;99.90
41928;DHT22;27616;51.420;6.788;2023-08-07T12:52:35;18.40;99.90
41928;DHT22;27616;51.420;6.788;2023-08-07T12:55:00;18.30;99.90
41928;DHT22;27616;51.420;6.788;2023-08-07T12:57:26;18.30;99.90
41928;DHT22;27616;51.420;6.788;2023-08-07T12:59:52;18.50;99.90
41928;DHT22;27616;51.420;6.788;2023-08-07T13:02:18;18.70;99.90
41928;DHT22;27616;51.420;6.788;2023-08-07T13:04:43;18.80;99.90
41928;DHT22;27616;51.420;6.788;2023-08-07T13:07:09;18.90;99.90
41928;DHT22;27616;51.420;6.788;2023-08-07T13:09:35;19.00;99.90
41928;DHT22;27616;51.420;6.788;2023-08-07T13:12:00;18.90;99.90
41928;DHT22;27616;51.420;6.788;2023-08-07T13:14:26;18.80;99.90
41928;DHT22;27616;51.420;6.788;2023-08-07T13:16:52;18.80;99.90
41928;DHT22;27616;51.420;6.788;2023-08-07T13:19:17;19.00;99.90
41928;DHT22;27616;51.420;6.788;2023-08-07T13:21:43;19.00;99.90
41928;DHT22;27616;51.420;6.788;2023-08-07T13:24:09;19.10;99.90
41928;DHT22;27616;51.420;6.788;2023-08-07T13:26:34;19.10;99.90
41928;DHT22;27616;51.420;6.788;2023-08-07T13:29:00;19.20;99.90
41928;DHT22;27616;51.420;6.788;2023-08-07T13:31:26;19.20;99.90
41928;DHT22;27616;51.420;6.788;2023-08-07T13:33:52;19.10;99.90
41928;DHT22;27616;51.420;6.788;2023-08-07T13:36:17;19.10;99.90
41928;DHT22;27616;51.420;6.788;2023-08-07T13:38:43;19.20;99.90
41928;DHT22;27616;51.420;6.788;2023-08-07T13:41:09;19.40;99.90
41928;DHT22;27616;51.420;6.788;2023-08-07T13:43:34;19.50;99.90
41928;DHT22;27616;51.420;6.788;2023-08-07T13:46:00;19.50;99.90
41928;DHT22;27616;51.420;6.788;2023-08-07T13:48:25;19.40;99.90
41928;DHT22;27616;51.420;6.788;2023-08-07T13:50:53;19.40;99.90
41928;DHT22;27616;51.420;6.788;2023-08-07T13:53:19;19.20;99.90
41928;DHT22;27616;51.420;6.788;2023-08-07T13:55:49;19.10;99.90
41928;DHT22;27616;51.420;6.788;2023-08-07T13:58:15;19.20;99.90
41928;DHT22;27616;51.420;6.788;2023-08-07T14:00:41;19.30;99.90
41928;DHT22;27616;51.420;6.788;2023-08-07T14:03:08;19.50;99.90
41928;DHT22;27616;51.420;6.788;2023-08-07T14:05:35;19.70;99.30
41928;DHT22;27616;51.420;6.788;2023-08-07T14:08:00;19.90;99.20
41928;DHT22;27616;51.420;6.788;2023-08-07T14:10:26;19.80;99.90
41928;DHT22;27616;51.420;6.788;2023-08-07T14:12:52;19.80;99.90
41928;DHT22;27616;51.420;6.788;2023-08-07T14:15:18;19.80;99.70
41928;DHT22;27616;51.420;6.788;2023-08-07T14:17:44;19.70;99.50
41928;DHT22;27616;51.420;6.788;2023-08-07T14:20:10;19.80;98.40
41928;DHT22;27616;51.420;6.788;2023-08-07T14:22:36;19.70;98.80
41928;DHT22;27616;51.420;6.788;2023-08-07T14:25:04;19.70;99.90
41928;DHT22;27616;51.420;6.788;2023-08-07T14:27:30;19.80;97.10
41928;DHT22;27616;51.420;6.788;2023-08-07T14:29:56;19.80;97.50
41928;DHT22;27616;51.420;6.788;2023-08-07T14:32:22;20.00;97.60
41928;DHT22;27616;51.420;6.788;2023-08-07T14:34:48;20.10;96.60
41928;DHT22;27616;51.420;6.788;2023-08-07T14:37:14;20.20;95.90
41928;DHT22;27616;51.420;6.788;2023-08-07T14:39:40;20.20;95.80
41928;DHT22;27616;51.420;6.788;2023-08-07T14:42:06;20.30;96.20
41928;DHT22;27616;51.420;6.788;2023-08-07T14:44:32;20.30;94.50
41928;DHT22;27616;51.420;6.788;2023-08-07T14:46:58;20.30;95.10
41928;DHT22;27616;51.420;6.788;2023-08-07T14:49:24;20.10;94.90
41928;DHT22;27616;51.420;6.788;2023-08-07T14:51:49;19.80;95.50
41928;DHT22;27616;51.420;6.788;2023-08-07T14:54:15;19.70;96.00
41928;DHT22;27616;51.420;6.788;2023-08-07T14:56:41;19.70;96.30
41928;DHT22;27616;51.420;6.788;2023-08-07T14:59:06;19.60;96.40
41928;DHT22;27616;51.420;6.788;2023-08-07T15:01:32;19.60;96.70
41928;DHT22;27616;51.420;6.788;2023-08-07T15:03:57;19.50;96.20
41928;DHT22;27616;51.420;6.788;2023-08-07T15:06:23;19.50;96.40
41928;DHT22;27616;51.420;6.788;2023-08-07T15:08:49;19.40;97.40
41928;DHT22;27616;51.420;6.788;2023-08-07T15:11:14;19.30;97.10
41928;DHT22;27616;51.420;6.788;2023-08-07T15:13:40;19.20;97.70
41928;DHT22;27616;51.420;6.788;2023-08-07T15:16:06;19.20;97.90
41928;DHT22;27616;51.420;6.788;2023-08-07T15:18:32;19.30;98.50
41928;DHT22;27616;51.420;6.788;2023-08-07T15:20:59;19.40;99.30
41928;DHT22;27616;51.420;6.788;2023-08-07T15:23:26;19.30;98.40
41928;DHT22;27616;51.420;6.788;2023-08-07T15:25:52;19.20;98.50
41928;DHT22;27616;51.420;6.788;2023-08-07T15:28:17;19.20;98.60
41928;DHT22;27616;51.420;6.788;2023-08-07T15:30:50;19.10;98.80
41928;DHT22;27616;51.420;6.788;2023-08-07T15:33:17;19.10;98.90
41928;DHT22;27616;51.420;6.788;2023-08-07T15:35:43;19.00;99.50
41928;DHT22;27616;51.420;6.788;2023-08-07T15:38:09;18.90;99.10
41928;DHT22;27616;51.420;6.788;2023-08-07T15:40:39;18.70;99.90